sensor_id;sensor_type;location;lat;lon;timestamp;pressure;altitude;pressure_sealevel;temperature;humidity
55468;BME280;41332;42.702;23.200;2023-08-21T00:01:12;94312.81;;;20.13;59.77
55468;BME280;41332;42.702;23.200;2023-08-21T00:03:37;94303.25;;;20.01;60.30
55468;BME280;41332;42.702;23.200;2023-08-21T00:06:03;94326.47;;;20.04;60.44
55468;BME280;41332;42.702;23.200;2023-08-21T00:08:28;94311.97;;;19.95;60.13
55468;BME280;41332;42.702;23.200;2023-08-21T00:10:55;94309.25;;;19.87;60.05
55468;BME280;41332;42.702;23.200;2023-08-21T00:13:20;94318.81;;;19.96;60.61
55468;BME280;41332;42.702;23.200;2023-08-21T00:15:46;94305.09;;;19.90;60.02
55468;BME280;41332;42.702;23.200;2023-08-21T00:18:11;94311.19;;;19.94;60.22
55468;BME280;41332;42.702;23.200;2023-08-21T00:20:36;94307.41;;;19.99;60.81
55468;BME280;41332;42.702;23.200;2023-08-21T00:23:02;94312.00;;;20.02;60.49
55468;BME280;41332;42.702;23.200;2023-08-21T00:25:27;94316.94;;;20.03;60.42
55468;BME280;41332;42.702;23.200;2023-08-21T00:27:53;94315.03;;;20.00;61.03
55468;BME280;41332;42.702;23.200;2023-08-21T00:30:18;94311.63;;;20.00;60.76
55468;BME280;41332;42.702;23.200;2023-08-21T00:32:43;94307.78;;;19.93;60.38
55468;BME280;41332;42.702;23.200;2023-08-21T00:35:09;94315.38;;;19.91;60.28
55468;BME280;41332;42.702;23.200;2023-08-21T00:37:34;94323.72;;;19.86;60.48
55468;BME280;41332;42.702;23.200;2023-08-21T00:39:59;94316.50;;;19.83;60.60
55468;BME280;41332;42.702;23.200;2023-08-21T00:42:25;94327.09;;;19.80;61.09
55468;BME280;41332;42.702;23.200;2023-08-21T00:44:51;94317.19;;;19.76;61.28
55468;BME280;41332;42.702;23.200;2023-08-21T00:47:16;94322.97;;;19.86;61.30
55468;BME280;41332;42.702;23.200;2023-08-21T00:49:42;94321.84;;;19.87;61.19
55468;BME280;41332;42.702;23.200;2023-08-21T00:52:11;94322.97;;;19.86;60.90
55468;BME280;41332;42.702;23.200;2023-08-21T00:54:37;94323.69;;;19.79;60.93
55468;BME280;41332;42.702;23.200;2023-08-21T00:57:03;94325.16;;;19.73;61.33
55468;BME280;41332;42.702;23.200;2023-08-21T00:59:29;94328.97;;;19.72;61.48
55468;BME280;41332;42.702;23.200;2023-08-21T01:01:55;94322.09;;;19.71;61.28
55468;BME280;41332;42.702;23.200;2023-08-21T01:04:20;94321.34;;;19.70;61.33
55468;BME280;41332;42.702;23.200;2023-08-21T01:06:50;94325.47;;;19.64;61.53
55468;BME280;41332;42.702;23.200;2023-08-21T01:09:39;94333.44;;;19.60;61.78
55468;BME280;41332;42.702;23.200;2023-08-21T01:17:23;94330.78;;;19.57;62.15
55468;BME280;41332;42.702;23.200;2023-08-21T01:19:49;94333.03;;;19.55;61.80
55468;BME280;41332;42.702;23.200;2023-08-21T01:22:15;94331.13;;;19.52;62.48
55468;BME280;41332;42.702;23.200;2023-08-21T01:24:41;94326.13;;;19.43;62.02
55468;BME280;41332;42.702;23.200;2023-08-21T01:27:07;94329.91;;;19.42;62.39
55468;BME280;41332;42.702;23.200;2023-08-21T01:29:33;94324.56;;;19.38;62.42
55468;BME280;41332;42.702;23.200;2023-08-21T01:32:09;94332.59;;;19.42;62.31
55468;BME280;41332;42.702;23.200;2023-08-21T01:34:39;94323.06;;;19.41;62.65
55468;BME280;41332;42.702;23.200;2023-08-21T01:37:06;94319.66;;;19.44;62.77
55468;BME280;41332;42.702;23.200;2023-08-21T01:39:32;94329.56;;;19.47;62.66
55468;BME280;41332;42.702;23.200;2023-08-21T01:41:58;94329.97;;;19.49;62.47
55468;BME280;41332;42.702;23.200;2023-08-21T01:44:23;94328.38;;;19.41;62.53
55468;BME280;41332;42.702;23.200;2023-08-21T01:46:49;94330.31;;;19.44;62.11
55468;BME280;41332;42.702;23.200;2023-08-21T01:49:14;94322.28;;;19.37;62.72
55468;BME280;41332;42.702;23.200;2023-08-21T01:51:40;94328.41;;;19.44;62.70
55468;BME280;41332;42.702;23.200;2023-08-21T01:54:05;94311.22;;;19.35;63.00
55468;BME280;41332;42.702;23.200;2023-08-21T01:56:31;94320.03;;;19.42;62.64
55468;BME280;41332;42.702;23.200;2023-08-21T01:58:56;94322.69;;;19.39;62.75
55468;BME280;41332;42.702;23.200;2023-08-21T02:01:21;94321.16;;;19.38;62.97
55468;BME280;41332;42.702;23.200;2023-08-21T02:03:48;94316.88;;;19.30;62.81
55468;BME280;41332;42.702;23.200;2023-08-21T02:06:13;94328.34;;;19.34;62.83
55468;BME280;41332;42.702;23.200;2023-08-21T02:08:39;94316.53;;;19.35;63.02
55468;BME280;41332;42.702;23.200;2023-08-21T02:11:04;94318.06;;;19.36;62.89
55468;BME280;41332;42.702;23.200;2023-08-21T02:13:30;94320.75;;;19.36;62.94
55468;BME280;41332;42.702;23.200;2023-08-21T02:15:55;94316.50;;;19.27;63.10
55468;BME280;41332;42.702;23.200;2023-08-21T02:18:20;94324.94;;;19.37;63.35
55468;BME280;41332;42.702;23.200;2023-08-21T02:20:47;94309.72;;;19.34;62.85
55468;BME280;41332;42.702;23.200;2023-08-21T02:23:14;94313.88;;;19.31;63.04
55468;BME280;41332;42.702;23.200;2023-08-21T02:25:39;94317.66;;;19.30;63.15
55468;BME280;41332;42.702;23.200;2023-08-21T02:28:04;94321.50;;;19.33;62.93
55468;BME280;41332;42.702;23.200;2023-08-21T02:30:30;94316.53;;;19.31;63.36
55468;BME280;41332;42.702;23.200;2023-08-21T02:32:55;94312.28;;;19.23;63.19
55468;BME280;41332;42.702;23.200;2023-08-21T02:35:21;94318.34;;;19.20;63.54
55468;BME280;41332;42.702;23.200;2023-08-21T02:37:46;94315.31;;;19.21;63.34
55468;BME280;41332;42.702;23.200;2023-08-21T02:40:12;94303.88;;;19.17;63.35
55468;BME280;41332;42.702;23.200;2023-08-21T02:42:37;94314.16;;;19.19;63.52
55468;BME280;41332;42.702;23.200;2023-08-21T02:45:03;94306.91;;;19.12;63.49
55468;BME280;41332;42.702;23.200;2023-08-21T02:47:35;94312.59;;;19.10;63.53
55468;BME280;41332;42.702;23.200;2023-08-21T02:50:02;94304.56;;;19.07;63.52
55468;BME280;41332;42.702;23.200;2023-08-21T02:52:28;94306.13;;;19.12;63.89
55468;BME280;41332;42.702;23.200;2023-08-21T02:54:53;94308.81;;;19.12;64.25
55468;BME280;41332;42.702;23.200;2023-08-21T02:57:19;94312.97;;;19.09;64.03
55468;BME280;41332;42.702;23.200;2023-08-21T02:59:44;94315.63;;;19.13;64.28
55468;BME280;41332;42.702;23.200;2023-08-21T03:02:09;94309.97;;;19.14;65.02
55468;BME280;41332;42.702;23.200;2023-08-21T03:04:35;94316.41;;;19.17;64.23
55468;BME280;41332;42.702;23.200;2023-08-21T03:07:00;94318.72;;;19.22;64.90
55468;BME280;41332;42.702;23.200;2023-08-21T03:09:25;94324.81;;;19.19;64.17
55468;BME280;41332;42.702;23.200;2023-08-21T03:11:51;94315.28;;;19.14;64.48
55468;BME280;41332;42.702;23.200;2023-08-21T03:14:16;94326.66;;;19.11;64.35
55468;BME280;41332;42.702;23.200;2023-08-21T03:16:41;94327.41;;;19.08;64.83
55468;BME280;41332;42.702;23.200;2023-08-21T03:19:07;94317.47;;;19.05;65.12
55468;BME280;41332;42.702;23.200;2023-08-21T03:21:32;94332.31;;;19.06;65.88
55468;BME280;41332;42.702;23.200;2023-08-21T03:23:58;94334.88;;;18.91;66.29
55468;BME280;41332;42.702;23.200;2023-08-21T03:26:27;94335.66;;;18.96;67.03
55468;BME280;41332;42.702;23.200;2023-08-21T03:28:52;94333.25;;;18.83;67.30
55468;BME280;41332;42.702;23.200;2023-08-21T03:31:18;94332.88;;;18.85;67.80
55468;BME280;41332;42.702;23.200;2023-08-21T03:33:43;94337.75;;;18.79;67.47
55468;BME280;41332;42.702;23.200;2023-08-21T03:36:09;94336.16;;;18.71;67.58
55468;BME280;41332;42.702;23.200;2023-08-21T03:38:34;94334.59;;;18.63;67.27
55468;BME280;41332;42.702;23.200;2023-08-21T03:41:00;94334.16;;;18.60;66.98
55468;BME280;41332;42.702;23.200;2023-08-21T03:43:26;94334.16;;;18.60;67.08
55468;BME280;41332;42.702;23.200;2023-08-21T03:45:51;94328.00;;;18.53;66.47
55468;BME280;41332;42.702;23.200;2023-08-21T03:48:16;94324.94;;;18.47;67.11
55468;BME280;41332;42.702;23.200;2023-08-21T03:50:42;94326.81;;;18.47;67.14
55468;BME280;41332;42.702;23.200;2023-08-21T03:53:07;94334.81;;;18.50;67.36
55468;BME280;41332;42.702;23.200;2023-08-21T03:55:33;94337.16;;;18.55;67.21
55468;BME280;41332;42.702;23.200;2023-08-21T03:57:58;94334.50;;;18.55;67.20
55468;BME280;41332;42.702;23.200;2023-08-21T04:00:24;94333.38;;;18.56;67.01
55468;BME280;41332;42.702;23.200;2023-08-21T04:02:49;94341.72;;;18.58;66.72
55468;BME280;41332;42.702;23.200;2023-08-21T04:05:14;94344.84;;;18.64;66.97
55468;BME280;41332;42.702;23.200;2023-08-21T04:07:40;94339.44;;;18.57;66.97
55468;BME280;41332;42.702;23.200;2023-08-21T04:10:06;94343.31;;;18.63;66.76
55468;BME280;41332;42.702;23.200;2023-08-21T04:12:31;94344.47;;;18.66;66.71
55468;BME280;41332;42.702;23.200;2023-08-21T04:14:56;94352.53;;;18.73;66.88
55468;BME280;41332;42.702;23.200;2023-08-21T04:17:22;94347.59;;;18.75;66.89
55468;BME280;41332;42.702;23.200;2023-08-21T04:19:48;94354.50;;;18.80;66.30
55468;BME280;41332;42.702;23.200;2023-08-21T04:22:13;94351.88;;;18.83;66.19
55468;BME280;41332;42.702;23.200;2023-08-21T04:24:40;94353.50;;;18.91;65.89
55468;BME280;41332;42.702;23.200;2023-08-21T04:27:06;94353.56;;;19.02;66.81
55468;BME280;41332;42.702;23.200;2023-08-21T04:29:31;94358.56;;;19.04;66.67
55468;BME280;41332;42.702;23.200;2023-08-21T04:31:56;94349.81;;;19.07;66.40
55468;BME280;41332;42.702;23.200;2023-08-21T04:34:22;94354.09;;;19.19;66.29
55468;BME280;41332;42.702;23.200;2023-08-21T04:36:47;94350.72;;;19.25;66.07
55468;BME280;41332;42.702;23.200;2023-08-21T04:39:14;94362.63;;;19.39;65.98
55468;BME280;41332;42.702;23.200;2023-08-21T04:41:41;94355.47;;;19.50;65.90
55468;BME280;41332;42.702;23.200;2023-08-21T04:44:06;94354.72;;;19.53;65.75
55468;BME280;41332;42.702;23.200;2023-08-21T04:46:31;94359.75;;;19.66;65.42
55468;BME280;41332;42.702;23.200;2023-08-21T04:48:57;94345.31;;;19.70;65.54
55468;BME280;41332;42.702;23.200;2023-08-21T04:51:22;94352.59;;;19.81;65.50
55468;BME280;41332;42.702;23.200;2023-08-21T04:53:48;94360.72;;;19.99;65.54
55468;BME280;41332;42.702;23.200;2023-08-21T04:56:13;94362.28;;;20.07;65.37
55468;BME280;41332;42.702;23.200;2023-08-21T04:58:39;94363.50;;;20.24;65.35
55468;BME280;41332;42.702;23.200;2023-08-21T05:01:04;94373.84;;;20.36;65.02
55468;BME280;41332;42.702;23.200;2023-08-21T05:03:30;94374.63;;;20.51;64.98
55468;BME280;41332;42.702;23.200;2023-08-21T05:05:55;94367.81;;;20.65;64.16
55468;BME280;41332;42.702;23.200;2023-08-21T05:08:25;94367.50;;;20.73;64.04
55468;BME280;41332;42.702;23.200;2023-08-21T05:10:55;94381.25;;;20.94;63.45
55468;BME280;41332;42.702;23.200;2023-08-21T05:13:21;94376.31;;;21.17;65.58
55468;BME280;41332;42.702;23.200;2023-08-21T05:15:53;94380.88;;;21.28;67.72
55468;BME280;41332;42.702;23.200;2023-08-21T05:18:21;94378.97;;;21.21;67.46
55468;BME280;41332;42.702;23.200;2023-08-21T05:20:50;94391.56;;;21.46;64.98
55468;BME280;41332;42.702;23.200;2023-08-21T05:23:16;94395.03;;;21.50;62.93
55468;BME280;41332;42.702;23.200;2023-08-21T05:25:43;94388.16;;;21.60;60.83
55468;BME280;41332;42.702;23.200;2023-08-21T05:28:08;94392.75;;;21.77;60.54
55468;BME280;41332;42.702;23.200;2023-08-21T05:30:36;94386.63;;;21.80;61.42
55468;BME280;41332;42.702;23.200;2023-08-21T05:33:02;94372.13;;;21.70;61.22
55468;BME280;41332;42.702;23.200;2023-08-21T05:35:27;94379.72;;;21.86;60.96
55468;BME280;41332;42.702;23.200;2023-08-21T05:37:53;94376.28;;;21.97;59.97
55468;BME280;41332;42.702;23.200;2023-08-21T05:40:18;94388.81;;;22.14;59.83
55468;BME280;41332;42.702;23.200;2023-08-21T05:42:44;94373.16;;;22.13;59.56
55468;BME280;41332;42.702;23.200;2023-08-21T05:45:10;94370.06;;;22.36;61.03
55468;BME280;41332;42.702;23.200;2023-08-21T05:47:35;94367.75;;;22.34;61.73
55468;BME280;41332;42.702;23.200;2023-08-21T05:50:00;94371.94;;;22.43;61.34
55468;BME280;41332;42.702;23.200;2023-08-21T05:52:26;94379.16;;;22.53;59.79
55468;BME280;41332;42.702;23.200;2023-08-21T05:54:51;94372.97;;;22.67;61.11
55468;BME280;41332;42.702;23.200;2023-08-21T05:57:16;94363.72;;;22.75;59.99
55468;BME280;41332;42.702;23.200;2023-08-21T05:59:45;94377.38;;;22.99;59.31
55468;BME280;41332;42.702;23.200;2023-08-21T06:02:12;94371.13;;;23.20;59.88
55468;BME280;41332;42.702;23.200;2023-08-21T06:04:41;94381.72;;;23.38;59.58
55468;BME280;41332;42.702;23.200;2023-08-21T06:07:07;94377.38;;;23.51;58.91
55468;BME280;41332;42.702;23.200;2023-08-21T06:09:33;94378.41;;;23.65;55.78
55468;BME280;41332;42.702;23.200;2023-08-21T06:12:04;94377.75;;;23.95;55.31
55468;BME280;41332;42.702;23.200;2023-08-21T06:14:30;94379.91;;;24.11;53.36
55468;BME280;41332;42.702;23.200;2023-08-21T06:17:03;94371.75;;;24.18;52.38
55468;BME280;41332;42.702;23.200;2023-08-21T06:19:29;94382.25;;;24.40;50.74
55468;BME280;41332;42.702;23.200;2023-08-21T06:21:55;94388.13;;;24.62;50.80
55468;BME280;41332;42.702;23.200;2023-08-21T06:24:20;94390.69;;;24.73;50.28
55468;BME280;41332;42.702;23.200;2023-08-21T06:26:46;94378.56;;;24.89;49.69
55468;BME280;41332;42.702;23.200;2023-08-21T06:29:11;94391.75;;;25.07;48.04
55468;BME280;41332;42.702;23.200;2023-08-21T06:31:37;94389.25;;;25.20;48.60
55468;BME280;41332;42.702;23.200;2023-08-21T06:34:02;94381.56;;;25.22;48.33
55468;BME280;41332;42.702;23.200;2023-08-21T06:36:27;94389.03;;;25.38;47.68
55468;BME280;41332;42.702;23.200;2023-08-21T06:38:53;94394.13;;;25.56;48.45
55468;BME280;41332;42.702;23.200;2023-08-21T06:41:18;94391.66;;;25.65;47.85
55468;BME280;41332;42.702;23.200;2023-08-21T06:43:45;94399.13;;;25.77;47.72
55468;BME280;41332;42.702;23.200;2023-08-21T06:46:11;94401.31;;;25.86;47.12
55468;BME280;41332;42.702;23.200;2023-08-21T06:48:38;94401.97;;;26.14;46.80
55468;BME280;41332;42.702;23.200;2023-08-21T06:51:03;94405.66;;;26.24;46.28
55468;BME280;41332;42.702;23.200;2023-08-21T06:53:29;94403.56;;;26.31;46.26
55468;BME280;41332;42.702;23.200;2023-08-21T06:55:55;94402.69;;;26.38;45.96
55468;BME280;41332;42.702;23.200;2023-08-21T06:58:20;94404.41;;;26.48;46.71
55468;BME280;41332;42.702;23.200;2023-08-21T07:00:46;94406.06;;;26.62;45.89
55468;BME280;41332;42.702;23.200;2023-08-21T07:03:11;94405.09;;;26.73;45.81
55468;BME280;41332;42.702;23.200;2023-08-21T07:05:37;94402.66;;;26.78;43.94
55468;BME280;41332;42.702;23.200;2023-08-21T07:08:03;94400.56;;;26.66;43.12
55468;BME280;41332;42.702;23.200;2023-08-21T07:10:28;94405.09;;;26.73;43.82
55468;BME280;41332;42.702;23.200;2023-08-21T07:12:54;94400.94;;;26.88;43.60
55468;BME280;41332;42.702;23.200;2023-08-21T07:15:20;94396.03;;;27.00;42.55
55468;BME280;41332;42.702;23.200;2023-08-21T07:17:46;94394.47;;;27.19;42.99
55468;BME280;41332;42.702;23.200;2023-08-21T07:20:11;94391.91;;;27.48;41.58
55468;BME280;41332;42.702;23.200;2023-08-21T07:22:37;94401.16;;;27.63;41.29
55468;BME280;41332;42.702;23.200;2023-08-21T07:25:03;94404.81;;;27.86;42.00
55468;BME280;41332;42.702;23.200;2023-08-21T07:27:30;94401.31;;;28.19;41.40
55468;BME280;41332;42.702;23.200;2023-08-21T07:29:55;94406.56;;;28.39;41.69
55468;BME280;41332;42.702;23.200;2023-08-21T07:32:21;94411.00;;;28.45;39.98
55468;BME280;41332;42.702;23.200;2023-08-21T07:34:46;94407.22;;;28.43;40.22
55468;BME280;41332;42.702;23.200;2023-08-21T07:37:12;94404.03;;;28.61;39.84
55468;BME280;41332;42.702;23.200;2023-08-21T07:39:37;94399.63;;;28.67;40.11
55468;BME280;41332;42.702;23.200;2023-08-21T07:42:03;94392.72;;;28.66;38.71
55468;BME280;41332;42.702;23.200;2023-08-21T07:44:28;94402.78;;;28.78;39.20
55468;BME280;41332;42.702;23.200;2023-08-21T07:46:53;94403.63;;;28.75;38.71
55468;BME280;41332;42.702;23.200;2023-08-21T07:49:19;94385.81;;;28.91;38.17
55468;BME280;41332;42.702;23.200;2023-08-21T07:51:44;94398.34;;;28.98;37.89
55468;BME280;41332;42.702;23.200;2023-08-21T07:54:09;94392.50;;;29.12;38.23
55468;BME280;41332;42.702;23.200;2023-08-21T07:56:35;94399.16;;;29.37;38.45
55468;BME280;41332;42.702;23.200;2023-08-21T07:59:02;94399.69;;;29.45;36.73
55468;BME280;41332;42.702;23.200;2023-08-21T08:01:27;94394.47;;;29.11;37.80
55468;BME280;41332;42.702;23.200;2023-08-21T08:03:53;94389.72;;;29.16;37.51
55468;BME280;41332;42.702;23.200;2023-08-21T08:06:18;94391.44;;;29.35;37.49
55468;BME280;41332;42.702;23.200;2023-08-21T08:08:44;94390.75;;;29.57;36.98
55468;BME280;41332;42.702;23.200;2023-08-21T08:11:09;94390.00;;;29.69;36.74
55468;BME280;41332;42.702;23.200;2023-08-21T08:13:35;94379.25;;;29.79;36.98
55468;BME280;41332;42.702;23.200;2023-08-21T08:16:00;94390.25;;;29.97;35.81
55468;BME280;41332;42.702;23.200;2023-08-21T08:18:26;94387.59;;;30.06;36.38
55468;BME280;41332;42.702;23.200;2023-08-21T08:20:52;94386.84;;;30.06;35.95
55468;BME280;41332;42.702;23.200;2023-08-21T08:23:19;94384.72;;;30.01;36.22
55468;BME280;41332;42.702;23.200;2023-08-21T08:25:45;94387.88;;;29.99;36.26
55468;BME280;41332;42.702;23.200;2023-08-21T08:28:10;94381.44;;;30.06;36.69
55468;BME280;41332;42.702;23.200;2023-08-21T08:30:36;94379.97;;;30.14;36.35
55468;BME280;41332;42.702;23.200;2023-08-21T08:33:01;94383.13;;;30.13;35.91
55468;BME280;41332;42.702;23.200;2023-08-21T08:35:26;94386.41;;;30.07;36.48
55468;BME280;41332;42.702;23.200;2023-08-21T08:37:52;94384.97;;;30.16;36.39
55468;BME280;41332;42.702;23.200;2023-08-21T08:40:17;94381.56;;;30.24;35.80
55468;BME280;41332;42.702;23.200;2023-08-21T08:42:43;94381.19;;;30.35;36.32
55468;BME280;41332;42.702;23.200;2023-08-21T08:45:11;94373.78;;;30.49;35.61
55468;BME280;41332;42.702;23.200;2023-08-21T08:47:37;94366.00;;;30.38;35.03
55468;BME280;41332;42.702;23.200;2023-08-21T08:50:05;94374.88;;;30.61;35.10
55468;BME280;41332;42.702;23.200;2023-08-21T08:52:35;94360.88;;;30.62;36.20
55468;BME280;41332;42.702;23.200;2023-08-21T08:55:00;94359.31;;;30.74;35.46
55468;BME280;41332;42.702;23.200;2023-08-21T08:57:26;94362.31;;;30.76;34.58
55468;BME280;41332;42.702;23.200;2023-08-21T08:59:51;94365.72;;;30.89;34.85
55468;BME280;41332;42.702;23.200;2023-08-21T09:02:17;94355.59;;;30.90;33.42
55468;BME280;41332;42.702;23.200;2023-08-21T09:04:42;94363.28;;;30.91;34.56
55468;BME280;41332;42.702;23.200;2023-08-21T09:07:09;94361.59;;;30.85;34.63
55468;BME280;41332;42.702;23.200;2023-08-21T09:09:45;94353.50;;;30.94;34.17
55468;BME280;41332;42.702;23.200;2023-08-21T09:12:13;94355.94;;;31.01;34.10
55468;BME280;41332;42.702;23.200;2023-08-21T09:14:40;94358.09;;;31.06;34.11
55468;BME280;41332;42.702;23.200;2023-08-21T09:17:06;94356.59;;;31.05;34.00
55468;BME280;41332;42.702;23.200;2023-08-21T09:19:32;94353.31;;;31.20;33.39
55468;BME280;41332;42.702;23.200;2023-08-21T09:21:57;94354.69;;;31.25;33.50
55468;BME280;41332;42.702;23.200;2023-08-21T09:24:23;94358.03;;;31.47;33.88
55468;BME280;41332;42.702;23.200;2023-08-21T09:26:50;94348.50;;;31.24;33.78
55468;BME280;41332;42.702;23.200;2023-08-21T09:29:15;94350.22;;;31.49;33.33
55468;BME280;41332;42.702;23.200;2023-08-21T09:31:40;94351.56;;;31.54;33.56
55468;BME280;41332;42.702;23.200;2023-08-21T09:34:06;94350.22;;;31.59;32.69
55468;BME280;41332;42.702;23.200;2023-08-21T09:36:32;94354.44;;;31.60;32.52
55468;BME280;41332;42.702;23.200;2023-08-21T09:38:58;94348.00;;;31.66;32.98
55468;BME280;41332;42.702;23.200;2023-08-21T09:41:25;94342.41;;;31.79;34.44
55468;BME280;41332;42.702;23.200;2023-08-21T09:43:50;94339.22;;;31.99;31.32
55468;BME280;41332;42.702;23.200;2023-08-21T09:46:17;94331.41;;;31.83;32.10
55468;BME280;41332;42.702;23.200;2023-08-21T09:48:49;94336.81;;;32.01;31.39
55468;BME280;41332;42.702;23.200;2023-08-21T09:51:16;94339.69;;;32.07;30.30
55468;BME280;41332;42.702;23.200;2023-08-21T09:53:42;94323.53;;;31.57;31.22
55468;BME280;41332;42.702;23.200;2023-08-21T09:56:07;94331.84;;;31.72;30.44
55468;BME280;41332;42.702;23.200;2023-08-21T09:58:34;94327.44;;;31.37;30.27
55468;BME280;41332;42.702;23.200;2023-08-21T10:01:01;94317.78;;;31.46;30.82
55468;BME280;41332;42.702;23.200;2023-08-21T10:03:31;94321.44;;;31.61;30.96
55468;BME280;41332;42.702;23.200;2023-08-21T10:05:57;94311.97;;;31.75;30.18
55468;BME280;41332;42.702;23.200;2023-08-21T10:08:27;94319.06;;;31.72;30.86
55468;BME280;41332;42.702;23.200;2023-08-21T10:10:52;94319.78;;;31.73;30.24
55468;BME280;41332;42.702;23.200;2023-08-21T10:13:19;94316.47;;;31.69;30.26
55468;BME280;41332;42.702;23.200;2023-08-21T10:15:45;94318.59;;;31.65;29.98
55468;BME280;41332;42.702;23.200;2023-08-21T10:18:20;94311.03;;;31.78;30.74
55468;BME280;41332;42.702;23.200;2023-08-21T10:20:46;94316.78;;;31.89;30.12
55468;BME280;41332;42.702;23.200;2023-08-21T10:23:23;94311.50;;;31.86;29.78
55468;BME280;41332;42.702;23.200;2023-08-21T10:25:54;94308.31;;;31.87;30.13
55468;BME280;41332;42.702;23.200;2023-08-21T10:28:20;94300.81;;;31.64;29.60
55468;BME280;41332;42.702;23.200;2023-08-21T10:30:45;94293.56;;;31.79;30.65
55468;BME280;41332;42.702;23.200;2023-08-21T10:33:10;94288.13;;;31.79;30.41
55468;BME280;41332;42.702;23.200;2023-08-21T10:35:36;94294.00;;;31.78;29.96
55468;BME280;41332;42.702;23.200;2023-08-21T10:40:35;94289.28;;;32.15;30.16
55468;BME280;41332;42.702;23.200;2023-08-21T10:43:01;94289.47;;;31.75;29.45
55468;BME280;41332;42.702;23.200;2023-08-21T10:45:28;94280.81;;;32.13;29.87
55468;BME280;41332;42.702;23.200;2023-08-21T10:47:57;94276.44;;;32.25;29.47
55468;BME280;41332;42.702;23.200;2023-08-21T10:50:22;94277.06;;;32.29;28.62
55468;BME280;41332;42.702;23.200;2023-08-21T10:52:51;94283.06;;;32.33;29.26
55468;BME280;41332;42.702;23.200;2023-08-21T10:55:16;94279.38;;;32.55;28.84
55468;BME280;41332;42.702;23.200;2023-08-21T10:57:46;94286.72;;;32.73;27.75
55468;BME280;41332;42.702;23.200;2023-08-21T11:00:14;94281.59;;;32.66;27.86
55468;BME280;41332;42.702;23.200;2023-08-21T11:02:44;94273.34;;;32.51;28.00
55468;BME280;41332;42.702;23.200;2023-08-21T11:05:11;94260.53;;;32.42;28.70
55468;BME280;41332;42.702;23.200;2023-08-21T11:07:38;94264.56;;;32.56;27.37
55468;BME280;41332;42.702;23.200;2023-08-21T11:10:06;94262.41;;;32.36;29.37
55468;BME280;41332;42.702;23.200;2023-08-21T11:12:32;94267.28;;;32.56;28.54
55468;BME280;41332;42.702;23.200;2023-08-21T11:14:58;94260.88;;;32.78;29.80
55468;BME280;41332;42.702;23.200;2023-08-21T11:17:23;94255.44;;;32.78;27.36
55468;BME280;41332;42.702;23.200;2023-08-21T11:19:48;94247.63;;;32.61;27.65
55468;BME280;41332;42.702;23.200;2023-08-21T11:22:15;94250.03;;;32.68;28.10
55468;BME280;41332;42.702;23.200;2023-08-21T11:27:07;94249.94;;;32.53;26.83
55468;BME280;41332;42.702;23.200;2023-08-21T11:29:44;94242.72;;;32.50;27.21
55468;BME280;41332;42.702;23.200;2023-08-21T11:34:53;94247.50;;;32.13;27.41
55468;BME280;41332;42.702;23.200;2023-08-21T11:37:23;94248.72;;;32.02;27.59
55468;BME280;41332;42.702;23.200;2023-08-21T11:39:58;94250.84;;;31.98;31.29
55468;BME280;41332;42.702;23.200;2023-08-21T11:42:33;94240.34;;;31.72;34.56
55468;BME280;41332;42.702;23.200;2023-08-21T11:45:00;94220.84;;;31.00;39.21
55468;BME280;41332;42.702;23.200;2023-08-21T11:47:33;94235.72;;;31.04;37.07
55468;BME280;41332;42.702;23.200;2023-08-21T11:50:03;94222.56;;;30.75;34.95
55468;BME280;41332;42.702;23.200;2023-08-21T11:52:30;94237.34;;;30.74;34.78
55468;BME280;41332;42.702;23.200;2023-08-21T11:54:57;94233.38;;;30.56;32.60
55468;BME280;41332;42.702;23.200;2023-08-21T11:57:23;94239.69;;;30.53;33.10
55468;BME280;41332;42.702;23.200;2023-08-21T11:59:53;94221.34;;;30.57;31.10
55468;BME280;41332;42.702;23.200;2023-08-21T12:02:27;94221.50;;;30.72;30.69
55468;BME280;41332;42.702;23.200;2023-08-21T12:05:06;94233.75;;;30.96;30.39
55468;BME280;41332;42.702;23.200;2023-08-21T12:07:32;94229.59;;;31.13;30.82
55468;BME280;41332;42.702;23.200;2023-08-21T12:09:58;94230.81;;;31.40;32.08
55468;BME280;41332;42.702;23.200;2023-08-21T12:12:24;94227.34;;;31.39;29.42
55468;BME280;41332;42.702;23.200;2023-08-21T12:14:49;94227.94;;;31.34;30.46
55468;BME280;41332;42.702;23.200;2023-08-21T12:17:15;94226.56;;;31.20;30.50
55468;BME280;41332;42.702;23.200;2023-08-21T12:19:40;94222.34;;;31.10;29.89
55468;BME280;41332;42.702;23.200;2023-08-21T12:22:07;94216.66;;;31.17;30.16
55468;BME280;41332;42.702;23.200;2023-08-21T12:24:33;94220.41;;;31.20;30.03
55468;BME280;41332;42.702;23.200;2023-08-21T12:26:58;94206.69;;;31.05;29.01
55468;BME280;41332;42.702;23.200;2023-08-21T12:29:24;94214.34;;;30.97;29.50
55468;BME280;41332;42.702;23.200;2023-08-21T12:31:49;94211.63;;;30.97;29.98
55468;BME280;41332;42.702;23.200;2023-08-21T12:34:15;94208.63;;;30.95;29.61
55468;BME280;41332;42.702;23.200;2023-08-21T12:36:40;94207.44;;;31.05;28.76
55468;BME280;41332;42.702;23.200;2023-08-21T12:39:06;94206.53;;;31.18;28.96
55468;BME280;41332;42.702;23.200;2023-08-21T12:41:32;94187.56;;;31.18;29.98
55468;BME280;41332;42.702;23.200;2023-08-21T12:44:00;94195.84;;;31.23;29.10
55468;BME280;41332;42.702;23.200;2023-08-21T12:46:28;94193.44;;;31.07;29.29
55468;BME280;41332;42.702;23.200;2023-08-21T12:48:54;94201.09;;;30.99;29.51
55468;BME280;41332;42.702;23.200;2023-08-21T12:51:20;94196.56;;;30.96;29.89
55468;BME280;41332;42.702;23.200;2023-08-21T12:53:45;94195.38;;;30.97;28.95
55468;BME280;41332;42.702;23.200;2023-08-21T12:56:11;94186.47;;;30.97;29.42
55468;BME280;41332;42.702;23.200;2023-08-21T12:58:36;94184.81;;;30.99;29.63